sensor_id;sensor_type;location;lat;lon;timestamp;pressure;altitude;pressure_sealevel;temperature;humidity
74435;BME280;62867;52.038;29.256;2024-01-16T00:02:31;994.7;;;0.2;65.2
74435;BME280;62867;52.038;29.256;2024-01-16T00:07:31;994.8;;;0.2;65.2
74435;BME280;62867;52.038;29.256;2024-01-16T00:12:51;994.8;;;0.3;65.1
74435;BME280;62867;52.038;29.256;2024-01-16T00:18:19;994.8;;;0.3;64.7
74435;BME280;62867;52.038;29.256;2024-01-16T00:23:03;994.8;;;0.3;64.9
74435;BME280;62867;52.038;29.256;2024-01-16T00:28:21;994.8;;;0.3;64.8
74435;BME280;62867;52.038;29.256;2024-01-16T00:32:53;994.9;;;0.3;64.4
74435;BME280;62867;52.038;29.256;2024-01-16T00:38:07;994.9;;;0.2;64.3
74435;BME280;62867;52.038;29.256;2024-01-16T00:43:19;994.8;;;0.1;64.2
74435;BME280;62867;52.038;29.256;2024-01-16T00:48:19;994.8;;;0;64.4
74435;BME280;62867;52.038;29.256;2024-01-16T00:53:07;994.8;;;0.1;64.2
74435;BME280;62867;52.038;29.256;2024-01-16T00:58:17;994.7;;;0.1;64.5
74435;BME280;62867;52.038;29.256;2024-01-16T01:03:19;994.6;;;0;64.4
74435;BME280;62867;52.038;29.256;2024-01-16T01:08:19;994.6;;;0;64.6
74435;BME280;62867;52.038;29.256;2024-01-16T01:13:21;994.7;;;0;64.3
74435;BME280;62867;52.038;29.256;2024-01-16T01:17:41;994.7;;;0;64.5
74435;BME280;62867;52.038;29.256;2024-01-16T01:23:11;994.7;;;0;64.4
74435;BME280;62867;52.038;29.256;2024-01-16T01:27:31;994.7;;;0;64.3
74435;BME280;62867;52.038;29.256;2024-01-16T01:32:31;994.6;;;-0.1;64.6
74435;BME280;62867;52.038;29.256;2024-01-16T01:37:31;994.6;;;0;64.8
74435;BME280;62867;52.038;29.256;2024-01-16T01:42:40;994.5;;;0;64.8
74435;BME280;62867;52.038;29.256;2024-01-16T01:47:51;994.5;;;0.1;64.8
74435;BME280;62867;52.038;29.256;2024-01-16T01:53:21;994.6;;;0.1;64.6
74435;BME280;62867;52.038;29.256;2024-01-16T01:58:03;994.5;;;0.1;64.5
74435;BME280;62867;52.038;29.256;2024-01-16T02:03:09;994.5;;;0.2;64.4
74435;BME280;62867;52.038;29.256;2024-01-16T02:08:21;994.5;;;0.1;64.5
74435;BME280;62867;52.038;29.256;2024-01-16T02:13:07;994.3;;;0.1;64.1
74435;BME280;62867;52.038;29.256;2024-01-16T02:18:05;994.4;;;0.1;64
74435;BME280;62867;52.038;29.256;2024-01-16T02:22:31;994.5;;;0;64.1
74435;BME280;62867;52.038;29.256;2024-01-16T02:28:05;994.5;;;-0.1;63.6
74435;BME280;62867;52.038;29.256;2024-01-16T02:32:53;994.5;;;-0.1;64.1
74435;BME280;62867;52.038;29.256;2024-01-16T02:38:19;994.6;;;-0.1;64.5
74435;BME280;62867;52.038;29.256;2024-01-16T02:42:49;994.6;;;-0.1;64.7
74435;BME280;62867;52.038;29.256;2024-01-16T02:48:03;994.7;;;-0.1;64.9
74435;BME280;62867;52.038;29.256;2024-01-16T02:52:49;994.7;;;0.1;65.1
74435;BME280;62867;52.038;29.256;2024-01-16T02:58:19;994.6;;;0.1;65
74435;BME280;62867;52.038;29.256;2024-01-16T03:02:39;994.5;;;0.1;64.8
74435;BME280;62867;52.038;29.256;2024-01-16T03:07:32;994.5;;;0.1;65
74435;BME280;62867;52.038;29.256;2024-01-16T03:12:32;994.4;;;0.1;65
74435;BME280;62867;52.038;29.256;2024-01-16T03:17:39;994.4;;;0.1;64.6
74435;BME280;62867;52.038;29.256;2024-01-16T03:22:45;994.5;;;0;64.8
74435;BME280;62867;52.038;29.256;2024-01-16T03:28:07;994.5;;;0;65.1
74435;BME280;62867;52.038;29.256;2024-01-16T03:33:19;994.4;;;0.1;64.5
74435;BME280;62867;52.038;29.256;2024-01-16T03:37:51;994.3;;;0;64.1
74435;BME280;62867;52.038;29.256;2024-01-16T03:43:07;994.4;;;0;64.9
74435;BME280;62867;52.038;29.256;2024-01-16T03:47:51;994.4;;;0.1;65.3
74435;BME280;62867;52.038;29.256;2024-01-16T03:53:05;994.3;;;0.2;65.6
74435;BME280;62867;52.038;29.256;2024-01-16T03:57:31;994.3;;;0.4;65.5
74435;BME280;62867;52.038;29.256;2024-01-16T04:03:07;994.4;;;0.5;65.4
74435;BME280;62867;52.038;29.256;2024-01-16T04:07:31;994.4;;;0.5;64.8
74435;BME280;62867;52.038;29.256;2024-01-16T04:13:07;994.3;;;0.4;64.8
74435;BME280;62867;52.038;29.256;2024-01-16T04:17:31;994.4;;;0.3;64.7
74435;BME280;62867;52.038;29.256;2024-01-16T04:23:11;994.4;;;0.2;64.6
74435;BME280;62867;52.038;29.256;2024-01-16T04:27:39;994.4;;;0.1;64.3
74435;BME280;62867;52.038;29.256;2024-01-16T04:33:01;994.3;;;0;64.1
74435;BME280;62867;52.038;29.256;2024-01-16T04:37:55;994.3;;;-0.2;63.6
74435;BME280;62867;52.038;29.256;2024-01-16T04:42:31;994.4;;;-0.3;63.6
74435;BME280;62867;52.038;29.256;2024-01-16T04:47:39;994.4;;;-0.5;63.8
74435;BME280;62867;52.038;29.256;2024-01-16T04:52:31;994.5;;;-0.6;64.4
74435;BME280;62867;52.038;29.256;2024-01-16T04:57:31;994.5;;;-0.7;64.2
74435;BME280;62867;52.038;29.256;2024-01-16T05:02:49;994.6;;;-0.7;64.5
74435;BME280;62867;52.038;29.256;2024-01-16T05:08:17;994.6;;;-0.5;65.3
74435;BME280;62867;52.038;29.256;2024-01-16T05:13:13;994.6;;;-0.3;65.7
74435;BME280;62867;52.038;29.256;2024-01-16T05:18:07;994.6;;;-0.1;65.6
74435;BME280;62867;52.038;29.256;2024-01-16T05:22:39;994.8;;;0.1;65.5
74435;BME280;62867;52.038;29.256;2024-01-16T05:27:53;994.8;;;0.2;65.4
74435;BME280;62867;52.038;29.256;2024-01-16T05:32:54;994.8;;;0.4;65.3
74435;BME280;62867;52.038;29.256;2024-01-16T05:38:07;994.9;;;0.5;65
74435;BME280;62867;52.038;29.256;2024-01-16T05:42:53;995;;;0.5;64.7
74435;BME280;62867;52.038;29.256;2024-01-16T05:48:07;995;;;0.6;64.7
74435;BME280;62867;52.038;29.256;2024-01-16T05:52:49;995.1;;;0.6;64.5
74435;BME280;62867;52.038;29.256;2024-01-16T05:58:19;995.1;;;0.7;64.5
74435;BME280;62867;52.038;29.256;2024-01-16T06:02:49;995.1;;;0.7;64.4
74435;BME280;62867;52.038;29.256;2024-01-16T06:08:06;995.2;;;0.8;64.2
74435;BME280;62867;52.038;29.256;2024-01-16T06:13:20;995.2;;;0.9;64.1
74435;BME280;62867;52.038;29.256;2024-01-16T06:17:40;995.2;;;1;63.9
74435;BME280;62867;52.038;29.256;2024-01-16T06:22:49;995.2;;;1;63.9
74435;BME280;62867;52.038;29.256;2024-01-16T06:27:52;995.2;;;1;63.8
74435;BME280;62867;52.038;29.256;2024-01-16T06:33:05;995.3;;;1.1;63.6
74435;BME280;62867;52.038;29.256;2024-01-16T06:37:39;995.3;;;1.2;63.3
74435;BME280;62867;52.038;29.256;2024-01-16T06:43:19;995.4;;;1.3;63.1
74435;BME280;62867;52.038;29.256;2024-01-16T06:47:51;995.4;;;1.4;62.6
74435;BME280;62867;52.038;29.256;2024-01-16T06:53:22;995.4;;;1.4;62.1
74435;BME280;62867;52.038;29.256;2024-01-16T06:58:05;995.5;;;1.5;61.9
74435;BME280;62867;52.038;29.256;2024-01-16T07:03:21;995.5;;;1.5;61.4
74435;BME280;62867;52.038;29.256;2024-01-16T07:07:54;995.5;;;1.5;61.1
74435;BME280;62867;52.038;29.256;2024-01-16T07:12:52;995.5;;;1.5;61.1
74435;BME280;62867;52.038;29.256;2024-01-16T07:18:22;995.6;;;1.6;61
74435;BME280;62867;52.038;29.256;2024-01-16T07:23:22;995.7;;;1.8;60.7
74435;BME280;62867;52.038;29.256;2024-01-16T07:28:07;995.8;;;1.8;60.4
74435;BME280;62867;52.038;29.256;2024-01-16T07:33:21;995.9;;;1.8;60.5
74435;BME280;62867;52.038;29.256;2024-01-16T07:38:22;995.9;;;1.8;60.6
74435;BME280;62867;52.038;29.256;2024-01-16T07:43:03;996;;;1.8;60.4
74435;BME280;62867;52.038;29.256;2024-01-16T07:48:22;996.1;;;1.8;60.2
74435;BME280;62867;52.038;29.256;2024-01-16T07:52:40;996.2;;;1.8;59.9
74435;BME280;62867;52.038;29.256;2024-01-16T07:58:00;996.4;;;1.7;59.6
74435;BME280;62867;52.038;29.256;2024-01-16T08:02:56;996.5;;;1.7;58.8
74435;BME280;62867;52.038;29.256;2024-01-16T08:07:32;996.5;;;1.6;58.1
74435;BME280;62867;52.038;29.256;2024-01-16T08:12:40;996.5;;;1.5;57.8
74435;BME280;62867;52.038;29.256;2024-01-16T08:17:52;996.5;;;1.5;57.7
74435;BME280;62867;52.038;29.256;2024-01-16T08:22:53;996.6;;;1.5;57.4
74435;BME280;62867;52.038;29.256;2024-01-16T08:28:20;996.7;;;1.6;57.4
74435;BME280;62867;52.038;29.256;2024-01-16T08:33:04;996.7;;;1.6;57.4
74435;BME280;62867;52.038;29.256;2024-01-16T08:37:52;996.7;;;1.6;57.2
74435;BME280;62867;52.038;29.256;2024-01-16T08:43:20;996.8;;;1.6;57.3
74435;BME280;62867;52.038;29.256;2024-01-16T08:48:08;996.8;;;1.6;57.4
74435;BME280;62867;52.038;29.256;2024-01-16T08:52:56;996.9;;;1.6;57.3
74435;BME280;62867;52.038;29.256;2024-01-16T08:57:40;996.9;;;1.5;57.3
74435;BME280;62867;52.038;29.256;2024-01-16T09:02:56;997;;;1.5;57.1
74435;BME280;62867;52.038;29.256;2024-01-16T09:07:54;997;;;1.5;56.9
74435;BME280;62867;52.038;29.256;2024-01-16T09:13:22;997;;;1.5;56.7
74435;BME280;62867;52.038;29.256;2024-01-16T09:17:50;997.1;;;1.5;56.2
74435;BME280;62867;52.038;29.256;2024-01-16T09:23:08;997.1;;;1.5;56.2
74435;BME280;62867;52.038;29.256;2024-01-16T09:27:32;997.2;;;1.6;56
74435;BME280;62867;52.038;29.256;2024-01-16T09:33:22;997.2;;;1.7;55.9
74435;BME280;62867;52.038;29.256;2024-01-16T09:37:32;997.3;;;1.8;55.8
74435;BME280;62867;52.038;29.256;2024-01-16T09:42:54;997.3;;;2;55.5
74435;BME280;62867;52.038;29.256;2024-01-16T09:47:32;997.3;;;2;55.2
74435;BME280;62867;52.038;29.256;2024-01-16T09:52:44;997.4;;;2;55.1
74435;BME280;62867;52.038;29.256;2024-01-16T09:57:52;997.4;;;2.1;55.1
74435;BME280;62867;52.038;29.256;2024-01-16T10:03:22;997.5;;;2.1;54.7
74435;BME280;62867;52.038;29.256;2024-01-16T10:07:44;997.6;;;2.2;54.5
74435;BME280;62867;52.038;29.256;2024-01-16T10:12:52;997.7;;;2.3;54.7
74435;BME280;62867;52.038;29.256;2024-01-16T10:18:21;997.7;;;2.2;54.4
74435;BME280;62867;52.038;29.256;2024-01-16T10:23:08;997.8;;;2.1;54
74435;BME280;62867;52.038;29.256;2024-01-16T10:28:06;997.9;;;2;54
74435;BME280;62867;52.038;29.256;2024-01-16T10:32:33;998;;;1.9;53.8
74435;BME280;62867;52.038;29.256;2024-01-16T10:38:08;998.2;;;2;53.9
74435;BME280;62867;52.038;29.256;2024-01-16T10:42:57;998.3;;;1.9;53.8
74435;BME280;62867;52.038;29.256;2024-01-16T10:48:16;998.3;;;1.9;53.6
74435;BME280;62867;52.038;29.256;2024-01-16T10:52:48;998.4;;;1.9;53.5
74435;BME280;62867;52.038;29.256;2024-01-16T10:58:06;998.5;;;1.9;53.5
74435;BME280;62867;52.038;29.256;2024-01-16T11:02:33;998.5;;;1.9;53.2
74435;BME280;62867;52.038;29.256;2024-01-16T11:08:20;998.6;;;1.8;52.8
74435;BME280;62867;52.038;29.256;2024-01-16T11:12:32;998.7;;;1.5;52.5
74435;BME280;62867;52.038;29.256;2024-01-16T11:17:32;998.8;;;1.5;52.6
74435;BME280;62867;52.038;29.256;2024-01-16T11:22:32;998.9;;;1.9;52.1
74435;BME280;62867;52.038;29.256;2024-01-16T11:27:40;999.1;;;2.2;52
74435;BME280;62867;52.038;29.256;2024-01-16T11:33:13;999.2;;;2.3;51.9
74435;BME280;62867;52.038;29.256;2024-01-16T11:38:24;999.3;;;2.3;51.9
74435;BME280;62867;52.038;29.256;2024-01-16T11:43:36;999.4;;;2.2;52.2
74435;BME280;62867;52.038;29.256;2024-01-16T11:52:48;999.6;;;2;52.4
74435;BME280;62867;52.038;29.256;2024-01-16T11:58:16;999.7;;;1.9;52.5
74435;BME280;62867;52.038;29.256;2024-01-16T12:03:08;999.8;;;1.7;52.7
74435;BME280;62867;52.038;29.256;2024-01-16T12:07:56;999.9;;;1.5;52.6
74435;BME280;62867;52.038;29.256;2024-01-16T12:13:10;1000;;;1.4;52.8
74435;BME280;62867;52.038;29.256;2024-01-16T12:17:32;1000.1;;;1.2;52.7
74435;BME280;62867;52.038;29.256;2024-01-16T12:23:10;1000.1;;;1;52.7
74435;BME280;62867;52.038;29.256;2024-01-16T12:27:57;1000.2;;;1;53
74435;BME280;62867;52.038;29.256;2024-01-16T12:33:22;1000.3;;;1;53
74435;BME280;62867;52.038;29.256;2024-01-16T12:38:04;1000.4;;;1;53
74435;BME280;62867;52.038;29.256;2024-01-16T12:43:04;1000.5;;;0.9;53.3
74435;BME280;62867;52.038;29.256;2024-01-16T12:48:22;1000.6;;;0.8;53.5
74435;BME280;62867;52.038;29.256;2024-01-16T12:52:40;1000.6;;;0.8;53.6
74435;BME280;62867;52.038;29.256;2024-01-16T12:57:48;1000.6;;;0.8;53.7
74435;BME280;62867;52.038;29.256;2024-01-16T13:02:48;1000.7;;;0.8;53.5
74435;BME280;62867;52.038;29.256;2024-01-16T13:08:22;1000.7;;;0.7;53.4
74435;BME280;62867;52.038;29.256;2024-01-16T13:13:14;1000.8;;;0.6;53.2
74435;BME280;62867;52.038;29.256;2024-01-16T13:17:40;1000.9;;;0.5;53.3
74435;BME280;62867;52.038;29.256;2024-01-16T13:22:32;1000.9;;;0.4;53.1
74435;BME280;62867;52.038;29.256;2024-01-16T13:27:32;1001.1;;;0.3;53.3
74435;BME280;62867;52.038;29.256;2024-01-16T13:32:32;1001.1;;;0.2;53.3
74435;BME280;62867;52.038;29.256;2024-01-16T13:38:12;1001.3;;;0.1;53.2
74435;BME280;62867;52.038;29.256;2024-01-16T13:42:40;1001.3;;;0.1;53.4
74435;BME280;62867;52.038;29.256;2024-01-16T13:47:44;1001.4;;;0;53.3
74435;BME280;62867;52.038;29.256;2024-01-16T13:53:12;1001.5;;;-0.1;53.5
74435;BME280;62867;52.038;29.256;2024-01-16T13:57:40;1001.6;;;-0.3;53.5
74435;BME280;62867;52.038;29.256;2024-01-16T14:02:32;1001.6;;;-0.4;53.4
74435;BME280;62867;52.038;29.256;2024-01-16T14:07:49;1001.8;;;-0.7;53.3
74435;BME280;62867;52.038;29.256;2024-01-16T14:12:32;1001.9;;;-0.8;53.5
74435;BME280;62867;52.038;29.256;2024-01-16T14:17:32;1002;;;-1;53.4
74435;BME280;62867;52.038;29.256;2024-01-16T14:22:32;1002;;;-1.1;53.4
74435;BME280;62867;52.038;29.256;2024-01-16T14:27:32;1002.1;;;-1.3;53.8
74435;BME280;62867;52.038;29.256;2024-01-16T14:32:32;1002.2;;;-1.5;54
74435;BME280;62867;52.038;29.256;2024-01-16T14:37:32;1002.3;;;-1.6;54.4
74435;BME280;62867;52.038;29.256;2024-01-16T14:42:40;1002.5;;;-1.7;54.4
74435;BME280;62867;52.038;29.256;2024-01-16T14:47:54;1002.6;;;-1.8;54.5
74435;BME280;62867;52.038;29.256;2024-01-16T14:52:40;1002.7;;;-1.9;54.6
74435;BME280;62867;52.038;29.256;2024-01-16T14:57:40;1002.8;;;-1.9;54.7
74435;BME280;62867;52.038;29.256;2024-01-16T15:03:10;1002.9;;;-1.9;54.8
74435;BME280;62867;52.038;29.256;2024-01-16T15:07:32;1003;;;-1.8;54.8
74435;BME280;62867;52.038;29.256;2024-01-16T15:12:50;1003;;;-1.7;54.9
74435;BME280;62867;52.038;29.256;2024-01-16T15:17:44;1003.1;;;-1.6;54.8
74435;BME280;62867;52.038;29.256;2024-01-16T15:22:40;1003.1;;;-1.6;54.9
74435;BME280;62867;52.038;29.256;2024-01-16T15:27:40;1003.2;;;-1.6;54.7
74435;BME280;62867;52.038;29.256;2024-01-16T15:32:54;1003.4;;;-1.6;55
74435;BME280;62867;52.038;29.256;2024-01-16T15:37:32;1003.6;;;-1.5;55.2
74435;BME280;62867;52.038;29.256;2024-01-16T15:42:32;1003.7;;;-1.4;55.2
74435;BME280;62867;52.038;29.256;2024-01-16T15:47:32;1003.8;;;-1.4;55.2
74435;BME280;62867;52.038;29.256;2024-01-16T15:52:32;1003.7;;;-1.4;54.9
74435;BME280;62867;52.038;29.256;2024-01-16T15:57:32;1003.8;;;-1.5;54.9
74435;BME280;62867;52.038;29.256;2024-01-16T16:02:44;1003.9;;;-1.6;55
74435;BME280;62867;52.038;29.256;2024-01-16T16:07:32;1004;;;-1.6;55
74435;BME280;62867;52.038;29.256;2024-01-16T16:12:40;1004.1;;;-1.6;55.1
74435;BME280;62867;52.038;29.256;2024-01-16T16:17:54;1004.2;;;-1.6;55.1
74435;BME280;62867;52.038;29.256;2024-01-16T16:22:32;1004.3;;;-1.6;55
74435;BME280;62867;52.038;29.256;2024-01-16T16:27:40;1004.4;;;-1.6;54.9
74435;BME280;62867;52.038;29.256;2024-01-16T16:32:32;1004.5;;;-1.6;54.9
74435;BME280;62867;52.038;29.256;2024-01-16T16:37:40;1004.6;;;-1.6;55
74435;BME280;62867;52.038;29.256;2024-01-16T16:42:40;1004.7;;;-1.6;54.8
74435;BME280;62867;52.038;29.256;2024-01-16T16:47:50;1004.7;;;-1.5;54.9
74435;BME280;62867;52.038;29.256;2024-01-16T16:52:32;1004.7;;;-1.6;54.8
74435;BME280;62867;52.038;29.256;2024-01-16T16:58:06;1004.8;;;-1.7;54.7
74435;BME280;62867;52.038;29.256;2024-01-16T17:02:44;1005;;;-1.8;54.7
74435;BME280;62867;52.038;29.256;2024-01-16T17:07:40;1005.1;;;-2;54.7
74435;BME280;62867;52.038;29.256;2024-01-16T17:12:32;1005.1;;;-2.1;54.6
74435;BME280;62867;52.038;29.256;2024-01-16T17:17:32;1005.2;;;-2.2;54.8
74435;BME280;62867;52.038;29.256;2024-01-16T17:22:56;1005.3;;;-2.3;54.9
74435;BME280;62867;52.038;29.256;2024-01-16T17:27:38;1005.4;;;-2.3;55
74435;BME280;62867;52.038;29.256;2024-01-16T17:32:40;1005.5;;;-2.3;55.1
74435;BME280;62867;52.038;29.256;2024-01-16T17:37:40;1005.6;;;-2.3;55.2
74435;BME280;62867;52.038;29.256;2024-01-16T17:42:32;1005.7;;;-2.3;55.2
74435;BME280;62867;52.038;29.256;2024-01-16T17:48:10;1005.7;;;-2.4;55
74435;BME280;62867;52.038;29.256;2024-01-16T17:52:40;1005.7;;;-2.5;55.2
74435;BME280;62867;52.038;29.256;2024-01-16T17:57:42;1005.8;;;-2.6;55.3
74435;BME280;62867;52.038;29.256;2024-01-16T18:02:40;1005.9;;;-2.7;55.4
74435;BME280;62867;52.038;29.256;2024-01-16T18:08:08;1006;;;-2.9;55.3
74435;BME280;62867;52.038;29.256;2024-01-16T18:12:42;1006.1;;;-3;55.4
74435;BME280;62867;52.038;29.256;2024-01-16T18:17:55;1006.2;;;-3.1;55.7
74435;BME280;62867;52.038;29.256;2024-01-16T18:22:40;1006.3;;;-3.2;56
74435;BME280;62867;52.038;29.256;2024-01-16T18:27:32;1006.6;;;-3.2;56
74435;BME280;62867;52.038;29.256;2024-01-16T18:32:40;1006.7;;;-3.2;56.3
74435;BME280;62867;52.038;29.256;2024-01-16T18:37:32;1006.8;;;-3.2;56.1
74435;BME280;62867;52.038;29.256;2024-01-16T18:42:41;1006.9;;;-3.3;56
74435;BME280;62867;52.038;29.256;2024-01-16T18:47:32;1007;;;-3.3;56.2
74435;BME280;62867;52.038;29.256;2024-01-16T18:52:32;1007.1;;;-3.4;56.1
74435;BME280;62867;52.038;29.256;2024-01-16T18:57:50;1007.3;;;-3.4;56.2
74435;BME280;62867;52.038;29.256;2024-01-16T19:02:40;1007.3;;;-3.5;56.2
74435;BME280;62867;52.038;29.256;2024-01-16T19:07:32;1007.3;;;-3.5;56.4
74435;BME280;62867;52.038;29.256;2024-01-16T19:12:40;1007.4;;;-3.6;56.4
74435;BME280;62867;52.038;29.256;2024-01-16T19:17:33;1007.5;;;-3.7;56.3
74435;BME280;62867;52.038;29.256;2024-01-16T19:22:32;1007.6;;;-3.9;56.4
74435;BME280;62867;52.038;29.256;2024-01-16T19:27:40;1007.7;;;-4;56.1
74435;BME280;62867;52.038;29.256;2024-01-16T19:32:32;1007.7;;;-4.1;56.6
74435;BME280;62867;52.038;29.256;2024-01-16T19:37:40;1007.8;;;-4.2;56.5
74435;BME280;62867;52.038;29.256;2024-01-16T19:42:40;1007.9;;;-4.3;56.8
74435;BME280;62867;52.038;29.256;2024-01-16T19:47:32;1008.1;;;-4.5;56.6
74435;BME280;62867;52.038;29.256;2024-01-16T19:52:40;1008.1;;;-4.5;56.6
74435;BME280;62867;52.038;29.256;2024-01-16T19:57:40;1008.2;;;-4.6;56.7
74435;BME280;62867;52.038;29.256;2024-01-16T20:02:41;1008.4;;;-4.7;56.8
74435;BME280;62867;52.038;29.256;2024-01-16T20:07:56;1008.5;;;-4.8;56.8
74435;BME280;62867;52.038;29.256;2024-01-16T20:13:08;1008.6;;;-4.9;57
74435;BME280;62867;52.038;29.256;2024-01-16T20:17:44;1008.6;;;-5;57.1
74435;BME280;62867;52.038;29.256;2024-01-16T20:22:56;1008.7;;;-5;56.8
74435;BME280;62867;52.038;29.256;2024-01-16T20:27:40;1008.8;;;-5.1;57.2
74435;BME280;62867;52.038;29.256;2024-01-16T20:32:40;1008.9;;;-5.2;57.2
74435;BME280;62867;52.038;29.256;2024-01-16T20:43:38;1009.1;;;-5.2;57.3
74435;BME280;62867;52.038;29.256;2024-01-16T20:47:52;1009.2;;;-5.2;57.2
74435;BME280;62867;52.038;29.256;2024-01-16T20:52:32;1009.4;;;-5.2;57.4
74435;BME280;62867;52.038;29.256;2024-01-16T20:57:48;1009.4;;;-5.1;57.8
74435;BME280;62867;52.038;29.256;2024-01-16T21:03:24;1009.4;;;-5;57.7
74435;BME280;62867;52.038;29.256;2024-01-16T21:07:56;1009.4;;;-4.8;57.8
74435;BME280;62867;52.038;29.256;2024-01-16T21:12:48;1009.5;;;-4.6;57.8
74435;BME280;62867;52.038;29.256;2024-01-16T21:17:32;1009.6;;;-4.5;57.6
74435;BME280;62867;52.038;29.256;2024-01-16T21:22:56;1009.6;;;-4.4;57.6
74435;BME280;62867;52.038;29.256;2024-01-16T21:28:08;1009.6;;;-4.3;57.6
74435;BME280;62867;52.038;29.256;2024-01-16T21:32:40;1009.6;;;-4.3;57.2
74435;BME280;62867;52.038;29.256;2024-01-16T21:37:56;1009.7;;;-4.3;57.2
74435;BME280;62867;52.038;29.256;2024-01-16T21:42:48;1009.9;;;-4.3;57.3
74435;BME280;62867;52.038;29.256;2024-01-16T21:47:44;1010;;;-4.3;57.4
74435;BME280;62867;52.038;29.256;2024-01-16T21:52:56;1010.1;;;-4.1;57.3
74435;BME280;62867;52.038;29.256;2024-01-16T21:57:40;1010.2;;;-4;57.3
74435;BME280;62867;52.038;29.256;2024-01-16T22:02:50;1010.2;;;-3.9;57
74435;BME280;62867;52.038;29.256;2024-01-16T22:07:32;1010.2;;;-3.8;56.9
74435;BME280;62867;52.038;29.256;2024-01-16T22:12:40;1010.2;;;-3.8;56.8
74435;BME280;62867;52.038;29.256;2024-01-16T22:17:40;1010.2;;;-3.9;56.4
74435;BME280;62867;52.038;29.256;2024-01-16T22:22:44;1010.3;;;-4;56.3
74435;BME280;62867;52.038;29.256;2024-01-16T22:28:08;1010.3;;;-4.1;56.6
74435;BME280;62867;52.038;29.256;2024-01-16T22:32:32;1010.3;;;-4.1;56.6
74435;BME280;62867;52.038;29.256;2024-01-16T22:37:40;1010.3;;;-4.2;56.5
74435;BME280;62867;52.038;29.256;2024-01-16T22:42:32;1010.4;;;-4.4;56.6
74435;BME280;62867;52.038;29.256;2024-01-16T22:47:33;1010.4;;;-4.5;56.5
74435;BME280;62867;52.038;29.256;2024-01-16T22:52:32;1010.4;;;-4.6;56.5
74435;BME280;62867;52.038;29.256;2024-01-16T22:57:32;1010.4;;;-4.7;56.4
74435;BME280;62867;52.038;29.256;2024-01-16T23:02:32;1010.5;;;-4.9;56.5
74435;BME280;62867;52.038;29.256;2024-01-16T23:07:40;1010.6;;;-5.1;56.6
74435;BME280;62867;52.038;29.256;2024-01-16T23:12:40;1010.7;;;-5.3;56.6
74435;BME280;62867;52.038;29.256;2024-01-16T23:17:40;1010.7;;;-5.4;56.9
74435;BME280;62867;52.038;29.256;2024-01-16T23:22:40;1010.7;;;-5.5;56.5
74435;BME280;62867;52.038;29.256;2024-01-16T23:28:06;1010.8;;;-5.7;56.6
74435;BME280;62867;52.038;29.256;2024-01-16T23:32:32;1010.9;;;-5.8;56.9
74435;BME280;62867;52.038;29.256;2024-01-16T23:37:32;1010.9;;;-5.8;56.9
74435;BME280;62867;52.038;29.256;2024-01-16T23:42:48;1011;;;-6;56.9
74435;BME280;62867;52.038;29.256;2024-01-16T23:48:20;1011;;;-6;57
74435;BME280;62867;52.038;29.256;2024-01-16T23:52:54;1011.1;;;-6.2;56.7
74435;BME280;62867;52.038;29.256;2024-01-16T23:58:08;1011.2;;;-6.3;56.8
